Terminal Aerodrome Forecast
Issued by NWS

Home | Current Version | Previous Version | Text Only | Print | Product List | Glossary On
Versions: 1 2 3 4 5 6 7 8 9 10 11 12 13 14 15 16 17 18 19 20 21 22 23 24 25 26 27
000
FTUS42 KMFL 231121
TAFOPF
TAF
KOPF 231121Z 2312/2412 VRB03KT P6SM SCT030
     FM231500 12009KT P6SM VCTS SCT030CB BKN050
     FM232300 11007KT P6SM VCSH BKN035 BKN070 BKN250
     FM240600 VRB03KT P6SM VCSH SCT030 BKN050=

USA.gov is the U.S. government's official web portal to all federal, state and local government web resources and services.